Time;durP1;ratioP1;P1;durP2;ratioP2;P2;SDS_P1;SDS_P2;PMS_P1;PMS_P2;Temp;Humidity;BMP_temperature;BMP_pressure;BME280_temperature;BME280_humidity;BME280_pressure;Samples;Min_cycle;Max_cycle;Signal;HPM_P1;HPM_P2
2024/03/01 00:01:58;;;;;;;16.88;13.60;;;5.80;99.90;;;;;;5006139;28;20420;-85
2024/03/01 00:04:23;;;;;;;15.82;12.93;;;5.60;99.90;;;;;;5028323;28;20399;-84
2024/03/01 00:06:49;;;;;;;18.40;12.20;;;5.90;99.90;;;;;;5014495;28;20476;-86
2024/03/01 00:09:15;;;;;;;17.40;13.20;;;5.90;99.90;;;;;;5018662;28;20468;-85
2024/03/01 00:11:40;;;;;;;16.65;12.20;;;5.80;99.90;;;;;;5019460;28;20914;-86
2024/03/01 00:14:06;;;;;;;17.17;12.85;;;5.80;99.90;;;;;;5017366;28;20395;-85
2024/03/01 00:16:32;;;;;;;18.65;13.85;;;5.80;99.90;;;;;;5018417;28;20392;-85
2024/03/01 00:18:58;;;;;;;17.92;13.80;;;5.60;99.90;;;;;;4994166;28;20897;-85
2024/03/01 00:21:23;;;;;;;16.17;12.80;;;5.90;99.90;;;;;;5007312;28;20411;-85
2024/03/01 00:23:49;;;;;;;15.73;12.80;;;5.80;99.90;;;;;;5008525;28;20407;-85
2024/03/01 00:26:14;;;;;;;19.77;13.98;;;5.60;99.90;;;;;;5025646;28;20387;-85
2024/03/01 00:28:40;;;;;;;20.50;13.15;;;5.80;99.90;;;;;;5031258;28;20398;-84
2024/03/01 00:31:06;;;;;;;17.40;12.80;;;5.90;99.90;;;;;;5013456;28;20383;-85
2024/03/01 00:33:32;;;;;;;17.93;13.10;;;5.60;99.90;;;;;;5026891;28;20753;-85
2024/03/01 00:35:58;;;;;;;16.48;13.50;;;5.70;99.90;;;;;;5030693;28;20399;-85
2024/03/01 00:38:23;;;;;;;16.85;12.57;;;5.80;99.90;;;;;;5012716;28;20387;-85
2024/03/01 00:40:49;;;;;;;18.57;12.87;;;5.80;99.90;;;;;;5030708;28;20429;-85
2024/03/01 00:43:14;;;;;;;18.55;13.57;;;5.60;99.90;;;;;;5013321;28;20430;-85
2024/03/01 00:45:40;;;;;;;17.83;13.35;;;5.80;99.90;;;;;;5012584;28;20410;-85
2024/03/01 00:48:13;;;;;;;15.20;12.23;;;5.80;99.90;;;;;;5029878;28;20398;-85
2024/03/01 00:50:40;;;;;;;17.23;12.38;;;5.80;99.90;;;;;;5013415;28;20411;-85
2024/03/01 00:53:06;;;;;;;13.90;11.25;;;5.60;99.90;;;;;;5008575;28;20422;-86
2024/03/01 00:55:33;;;;;;;17.05;11.98;;;5.90;99.90;;;;;;5012464;28;20395;-85
2024/03/01 00:57:59;;;;;;;15.43;12.02;;;5.90;99.90;;;;;;5005059;28;20442;-85
2024/03/01 01:00:25;;;;;;;16.40;12.40;;;5.90;99.90;;;;;;5009580;28;20387;-85
2024/03/01 01:02:51;;;;;;;19.02;13.70;;;5.80;99.90;;;;;;5030398;28;20393;-85
2024/03/01 01:05:17;;;;;;;16.75;12.80;;;6.10;99.90;;;;;;5004518;28;20426;-85
2024/03/01 01:07:43;;;;;;;16.08;11.70;;;7.50;99.90;;;;;;5013171;28;20796;-85
2024/03/01 01:10:09;;;;;;;17.63;11.90;;;6.00;99.90;;;;;;5004805;28;20420;-84
2024/03/01 01:12:35;;;;;;;16.60;11.82;;;6.00;99.90;;;;;;5009534;28;20806;-86
2024/03/01 01:15:01;;;;;;;16.97;12.03;;;6.10;99.90;;;;;;5004737;28;20403;-85
2024/03/01 01:17:27;;;;;;;17.43;12.53;;;6.20;99.90;;;;;;5028214;28;20420;-85
2024/03/01 01:19:57;;;;;;;16.30;12.30;;;6.00;99.90;;;;;;5017853;28;20424;-85
2024/03/01 01:22:24;;;;;;;15.77;12.05;;;6.30;99.90;;;;;;5026852;28;20398;-84
2024/03/01 01:24:50;;;;;;;15.82;11.13;;;6.30;99.90;;;;;;5027798;28;20396;-85
2024/03/01 01:27:16;;;;;;;16.30;12.07;;;6.50;99.90;;;;;;5014590;28;20396;-85
2024/03/01 01:29:41;;;;;;;14.43;10.40;;;6.30;99.90;;;;;;5019001;28;20894;-85
2024/03/01 01:32:07;;;;;;;15.65;11.82;;;6.30;99.90;;;;;;5008590;28;20458;-85
2024/03/01 01:34:33;;;;;;;16.55;11.20;;;6.20;99.90;;;;;;5034262;28;20493;-84
2024/03/01 01:36:59;;;;;;;16.95;11.40;;;6.20;99.90;;;;;;5016279;28;20476;-84
2024/03/01 01:39:24;;;;;;;15.70;11.30;;;6.10;99.90;;;;;;5034090;28;20403;-85
2024/03/01 01:41:50;;;;;;;13.38;10.68;;;6.10;99.90;;;;;;5032561;28;20430;-84
2024/03/01 01:44:15;;;;;;;12.85;11.30;;;6.10;99.90;;;;;;5006276;28;20393;-84
2024/03/01 01:46:44;;;;;;;14.90;12.40;;;6.20;99.90;;;;;;5030479;28;20461;-85
2024/03/01 01:49:10;;;;;;;15.25;11.40;;;6.10;99.90;;;;;;5033713;28;20383;-85
2024/03/01 01:51:36;;;;;;;14.43;10.63;;;6.20;99.90;;;;;;5015381;28;20437;-85
2024/03/01 01:54:03;;;;;;;13.87;11.10;;;6.30;99.90;;;;;;5033209;28;20806;-85
2024/03/01 01:56:28;;;;;;;16.88;11.77;;;6.60;99.90;;;;;;5015964;28;20483;-85
2024/03/01 01:58:55;;;;;;;15.10;11.80;;;6.30;99.90;;;;;;5034063;28;20822;-85
2024/03/01 02:01:20;;;;;;;14.50;11.50;;;6.40;99.90;;;;;;5015177;28;20415;-85
2024/03/01 02:03:46;;;;;;;15.43;12.53;;;6.30;99.90;;;;;;5029106;28;20406;-85
2024/03/01 02:06:11;;;;;;;16.50;11.77;;;6.30;99.90;;;;;;5018391;28;20441;-85
2024/03/01 02:08:38;;;;;;;15.85;10.63;;;6.30;99.90;;;;;;5015788;28;20879;-85
2024/03/01 02:11:04;;;;;;;13.67;11.20;;;6.40;99.90;;;;;;5025134;28;20396;-82
2024/03/01 02:13:31;;;;;;;16.95;11.50;;;6.30;99.90;;;;;;5035639;28;20412;-83
2024/03/01 02:15:56;;;;;;;13.60;11.30;;;6.40;99.90;;;;;;5015591;28;20437;-85
2024/03/01 02:18:22;;;;;;;13.80;10.67;;;6.40;99.90;;;;;;5017548;28;20802;-85
2024/03/01 02:21:07;;;;;;;16.10;11.98;;;6.30;99.90;;;;;;5016501;28;20441;-84
2024/03/01 02:23:32;;;;;;;14.98;12.00;;;5.90;99.90;;;;;;5011686;28;20399;-85
2024/03/01 02:25:58;;;;;;;15.73;11.50;;;6.30;99.90;;;;;;5028167;28;20890;-84
2024/03/01 02:28:24;;;;;;;15.35;11.77;;;6.20;99.90;;;;;;5008311;28;20418;-86
2024/03/01 02:30:52;;;;;;;15.98;11.60;;;6.20;99.90;;;;;;5024102;28;20410;-85
2024/03/01 02:33:18;;;;;;;18.00;12.13;;;6.50;99.90;;;;;;5008162;28;20482;-83
2024/03/01 02:35:44;;;;;;;15.13;11.52;;;6.40;99.90;;;;;;5033290;28;20379;-84
2024/03/01 02:38:10;;;;;;;15.57;12.02;;;6.20;99.90;;;;;;5015434;28;20395;-85
2024/03/01 02:40:35;;;;;;;18.10;12.27;;;6.30;99.90;;;;;;5015906;28;20418;-85
2024/03/01 02:43:01;;;;;;;15.52;11.93;;;6.30;99.90;;;;;;5033739;28;20449;-85
2024/03/01 02:45:26;;;;;;;14.63;11.75;;;6.40;99.90;;;;;;5032960;28;20395;-85
2024/03/01 02:47:52;;;;;;;14.50;11.10;;;6.40;99.90;;;;;;5016334;28;20396;-84
2024/03/01 02:50:18;;;;;;;15.15;11.98;;;6.40;99.90;;;;;;5013195;28;20432;-84
2024/03/01 02:52:44;;;;;;;16.33;11.73;;;6.30;99.90;;;;;;5012729;28;20439;-84
2024/03/01 02:55:09;;;;;;;14.80;11.82;;;6.40;99.90;;;;;;5014027;28;20762;-85
2024/03/01 02:57:36;;;;;;;13.23;10.50;;;6.30;99.90;;;;;;5032837;28;20494;-84
2024/03/01 03:00:10;;;;;;;13.73;11.47;;;6.10;99.90;;;;;;5014458;28;20592;-84
2024/03/01 03:02:39;;;;;;;17.90;12.63;;;6.40;99.90;;;;;;5025779;28;20467;-88
2024/03/01 03:05:05;;;;;;;14.18;10.82;;;6.30;99.90;;;;;;5011383;28;20914;-85
2024/03/01 03:07:30;;;;;;;16.98;11.60;;;6.30;99.90;;;;;;5019578;28;20511;-85
2024/03/01 03:09:56;;;;;;;13.90;12.00;;;6.30;99.90;;;;;;5005898;28;20797;-86
2024/03/01 03:12:21;;;;;;;16.10;11.17;;;6.40;99.90;;;;;;5015180;28;20763;-86
2024/03/01 03:14:48;;;;;;;17.30;12.20;;;6.40;99.90;;;;;;5014514;28;20418;-85
2024/03/01 03:17:13;;;;;;;16.25;11.40;;;6.50;99.90;;;;;;5025339;28;20398;-85
2024/03/01 03:19:39;;;;;;;16.00;11.90;;;6.40;99.90;;;;;;5009107;28;20385;-86
2024/03/01 03:22:08;;;;;;;15.07;11.80;;;6.50;99.90;;;;;;5037751;22;20483;-78
2024/03/01 03:24:37;;;;;;;14.45;10.93;;;6.50;99.90;;;;;;5058399;28;20449;-79
2024/03/01 03:27:03;;;;;;;15.20;11.55;;;6.50;99.90;;;;;;5054362;28;20390;-80
2024/03/01 03:29:29;;;;;;;15.40;12.53;;;6.50;99.90;;;;;;5055851;28;20465;-79
2024/03/01 03:31:54;;;;;;;16.95;11.50;;;6.60;99.90;;;;;;5053599;28;20389;-81
2024/03/01 03:34:20;;;;;;;17.60;12.47;;;6.50;99.90;;;;;;5036364;28;20510;-80
2024/03/01 03:36:45;;;;;;;15.37;12.33;;;6.50;99.90;;;;;;5036739;28;20559;-80
2024/03/01 03:39:11;;;;;;;15.83;12.17;;;6.40;99.90;;;;;;5028527;28;20397;-80
2024/03/01 03:41:37;;;;;;;17.67;11.83;;;6.30;99.90;;;;;;5036970;28;20493;-78
2024/03/01 03:44:03;;;;;;;17.27;12.95;;;6.50;99.90;;;;;;5042299;28;20429;-78
2024/03/01 03:46:29;;;;;;;14.53;11.97;;;6.50;99.90;;;;;;5043945;28;20438;-78
2024/03/01 03:48:54;;;;;;;14.52;10.90;;;6.60;99.90;;;;;;5041710;28;20393;-80
2024/03/01 03:51:23;;;;;;;15.13;11.80;;;6.60;99.90;;;;;;5036790;28;20895;-80
2024/03/01 03:53:49;;;;;;;16.70;11.68;;;6.50;99.90;;;;;;5039948;28;20790;-79
2024/03/01 03:56:14;;;;;;;18.20;12.57;;;6.40;99.90;;;;;;5037747;28;20418;-80
2024/03/01 03:58:40;;;;;;;16.13;11.32;;;6.70;99.90;;;;;;5037563;28;20875;-81
2024/03/01 04:01:07;;;;;;;15.32;11.73;;;6.80;99.90;;;;;;5037896;28;20410;-81
2024/03/01 04:03:32;;;;;;;15.23;11.52;;;6.70;99.90;;;;;;5035763;28;20387;-81
2024/03/01 04:05:58;;;;;;;18.17;12.60;;;6.60;99.90;;;;;;5035933;28;20410;-80
2024/03/01 04:08:24;;;;;;;17.13;12.13;;;6.70;99.90;;;;;;5036672;28;20437;-79
2024/03/01 04:10:49;;;;;;;17.40;12.10;;;6.70;99.90;;;;;;5035072;28;20400;-80
2024/03/01 04:13:15;;;;;;;16.10;11.60;;;6.70;99.90;;;;;;5034886;28;20470;-81
2024/03/01 04:15:40;;;;;;;16.90;12.40;;;6.60;99.90;;;;;;5035595;28;20830;-79
2024/03/01 04:18:08;;;;;;;18.55;13.38;;;6.60;99.90;;;;;;5034911;28;20474;-80
2024/03/01 04:20:34;;;;;;;17.17;12.32;;;6.60;99.90;;;;;;5033006;28;20841;-79
2024/03/01 04:22:59;;;;;;;18.40;13.68;;;6.00;99.90;;;;;;5034718;28;20411;-79
2024/03/01 04:25:27;;;;;;;18.47;12.73;;;6.50;99.90;;;;;;5029986;28;20440;-81
2024/03/01 04:27:53;;;;;;;18.10;12.25;;;6.60;99.90;;;;;;5035637;28;20383;-80
2024/03/01 04:30:19;;;;;;;17.73;12.50;;;6.60;99.90;;;;;;5035029;28;20388;-81
2024/03/01 04:32:44;;;;;;;17.23;13.00;;;6.70;99.90;;;;;;5031988;28;20375;-81
2024/03/01 04:35:12;;;;;;;16.83;12.27;;;6.70;99.90;;;;;;5035634;28;20418;-81
2024/03/01 04:37:38;;;;;;;20.15;12.30;;;6.60;99.90;;;;;;5034396;28;20391;-80
2024/03/01 04:40:05;;;;;;;16.63;12.00;;;6.80;99.90;;;;;;5034789;28;20430;-82
2024/03/01 04:42:30;;;;;;;16.13;12.35;;;7.00;99.90;;;;;;5028169;28;20402;-82
2024/03/01 04:44:56;;;;;;;15.88;12.15;;;6.70;99.90;;;;;;5035086;28;20759;-79
2024/03/01 04:47:21;;;;;;;18.43;12.30;;;7.00;99.90;;;;;;5020241;28;20808;-81
2024/03/01 04:49:47;;;;;;;14.17;12.03;;;6.90;99.90;;;;;;5029170;28;20838;-81
2024/03/01 04:52:12;;;;;;;15.40;12.00;;;6.90;99.90;;;;;;5035462;28;20395;-80
2024/03/01 04:54:38;;;;;;;15.77;11.10;;;7.00;99.90;;;;;;5038590;28;20391;-79
2024/03/01 04:57:06;;;;;;;16.52;11.63;;;7.00;99.90;;;;;;5040318;28;20412;-80
2024/03/01 04:59:38;;;;;;;14.25;11.15;;;7.10;99.90;;;;;;5042286;28;20479;-80
2024/03/01 05:02:07;;;;;;;14.15;10.95;;;7.10;99.90;;;;;;5045909;28;20468;-81
2024/03/01 05:04:34;;;;;;;14.60;11.07;;;7.10;99.90;;;;;;5040664;28;20399;-81
2024/03/01 05:06:59;;;;;;;16.65;11.25;;;7.00;99.90;;;;;;5039270;28;20387;-81
2024/03/01 05:09:25;;;;;;;14.17;11.97;;;6.60;99.90;;;;;;5039616;28;20414;-81
2024/03/01 05:11:50;;;;;;;14.57;11.27;;;7.10;99.90;;;;;;5037771;28;20420;-80
2024/03/01 05:14:16;;;;;;;17.87;11.97;;;7.30;99.90;;;;;;5037516;28;20394;-81
2024/03/01 05:16:41;;;;;;;14.45;11.20;;;7.00;99.90;;;;;;5039339;28;20489;-81
2024/03/01 05:19:07;;;;;;;16.95;11.77;;;7.20;99.90;;;;;;5041103;28;20785;-83
2024/03/01 05:21:33;;;;;;;17.20;11.73;;;7.10;99.90;;;;;;5043906;28;20406;-83
2024/03/01 05:23:58;;;;;;;13.37;9.70;;;7.30;99.90;;;;;;5044038;28;20605;-82
2024/03/01 05:26:25;;;;;;;17.80;11.03;;;7.40;99.90;;;;;;5042983;28;20398;-81
2024/03/01 05:28:51;;;;;;;12.35;8.75;;;7.30;99.90;;;;;;5040558;28;20501;-82
2024/03/01 05:31:18;;;;;;;11.50;9.60;;;7.30;99.90;;;;;;5047298;28;20423;-79
2024/03/01 05:33:43;;;;;;;15.63;10.40;;;7.40;99.90;;;;;;5051224;28;20470;-81
2024/03/01 05:36:10;;;;;;;12.18;10.30;;;7.30;99.90;;;;;;5053265;28;20395;-81
2024/03/01 05:38:35;;;;;;;14.00;10.63;;;7.50;99.90;;;;;;5045020;28;20451;-82
2024/03/01 05:41:01;;;;;;;12.87;9.70;;;7.70;99.90;;;;;;5040734;28;20411;-80
2024/03/01 05:43:26;;;;;;;13.40;9.83;;;7.40;99.90;;;;;;5049883;28;20453;-82
2024/03/01 05:45:52;;;;;;;10.13;7.63;;;7.40;99.90;;;;;;5037310;28;20415;-81
2024/03/01 05:48:18;;;;;;;8.60;6.80;;;7.50;99.90;;;;;;5036622;28;20554;-81
2024/03/01 05:50:43;;;;;;;7.00;5.80;;;7.80;99.90;;;;;;5037514;28;20374;-82
2024/03/01 05:53:14;;;;;;;7.47;4.40;;;7.60;99.90;;;;;;5037206;28;20387;-79
2024/03/01 05:55:40;;;;;;;4.87;4.37;;;8.40;99.90;;;;;;5033249;28;20761;-76
2024/03/01 05:58:06;;;;;;;6.10;4.55;;;8.50;99.90;;;;;;5030617;28;20403;-80
2024/03/01 06:00:32;;;;;;;5.73;4.40;;;8.30;99.90;;;;;;5034796;28;20894;-80
2024/03/01 06:02:57;;;;;;;6.37;4.20;;;8.70;99.90;;;;;;5034983;28;20402;-80
2024/03/01 06:05:23;;;;;;;6.43;4.20;;;8.70;99.90;;;;;;5036395;28;20375;-80
2024/03/01 06:07:49;;;;;;;6.00;4.47;;;8.70;99.90;;;;;;5038473;28;20544;-83
2024/03/01 06:10:16;;;;;;;4.90;4.10;;;8.80;99.90;;;;;;5039577;28;20415;-83
2024/03/01 06:12:41;;;;;;;5.20;4.70;;;8.70;99.90;;;;;;5037247;28;20391;-82
2024/03/01 06:15:07;;;;;;;5.40;4.50;;;8.80;99.90;;;;;;5038659;28;20391;-83
2024/03/01 06:17:34;;;;;;;5.20;4.60;;;9.10;99.90;;;;;;5040303;28;20383;-83
2024/03/01 06:20:00;;;;;;;4.78;4.28;;;9.00;99.90;;;;;;5040077;28;20387;-84
2024/03/01 06:22:28;;;;;;;5.97;4.47;;;9.00;99.90;;;;;;5038539;28;20915;-81
2024/03/01 06:24:53;;;;;;;7.10;4.60;;;8.80;99.90;;;;;;5030957;28;20453;-81
2024/03/01 06:27:19;;;;;;;6.63;5.00;;;8.90;99.90;;;;;;5031196;28;20862;-83
2024/03/01 06:29:44;;;;;;;5.90;5.10;;;9.00;99.90;;;;;;5031241;28;20755;-82
2024/03/01 06:32:11;;;;;;;6.18;5.03;;;8.90;99.90;;;;;;5033374;28;20871;-80
2024/03/01 06:34:37;;;;;;;7.35;5.35;;;9.00;99.90;;;;;;5030557;28;20402;-82
2024/03/01 06:37:03;;;;;;;6.85;5.50;;;9.00;99.90;;;;;;5030934;28;20395;-83
2024/03/01 06:39:29;;;;;;;6.40;5.80;;;9.00;99.90;;;;;;5031975;28;20454;-83
2024/03/01 06:41:55;;;;;;;7.03;5.90;;;9.10;99.90;;;;;;5036416;28;20418;-82
2024/03/01 06:44:24;;;;;;;7.43;6.10;;;9.00;99.90;;;;;;5035227;28;20430;-81
2024/03/01 06:46:51;;;;;;;7.18;5.95;;;8.90;99.90;;;;;;5035393;28;20387;-81
2024/03/01 06:49:16;;;;;;;6.85;6.10;;;8.90;99.90;;;;;;5035293;28;20384;-81
2024/03/01 06:51:42;;;;;;;7.90;6.30;;;9.00;99.90;;;;;;5034260;28;20481;-81
2024/03/01 06:54:07;;;;;;;8.70;6.40;;;8.90;99.90;;;;;;5037595;28;20399;-83
2024/03/01 06:56:33;;;;;;;8.07;6.87;;;9.00;99.90;;;;;;5032309;28;20464;-77
2024/03/01 06:58:59;;;;;;;7.22;5.72;;;9.10;99.90;;;;;;5033404;28;20889;-83
2024/03/01 07:01:24;;;;;;;6.90;6.20;;;8.90;99.90;;;;;;5032503;28;20404;-83
2024/03/01 07:03:49;;;;;;;6.50;5.50;;;9.00;99.90;;;;;;5034068;28;20907;-84
2024/03/01 07:06:15;;;;;;;6.37;5.20;;;9.00;99.90;;;;;;5033668;28;20395;-84
2024/03/01 07:08:42;;;;;;;6.20;5.00;;;8.90;99.90;;;;;;5044761;28;20441;-83
2024/03/01 07:11:08;;;;;;;5.10;4.60;;;8.70;99.90;;;;;;5060324;28;20418;-82
2024/03/01 07:13:34;;;;;;;5.50;5.00;;;9.10;99.90;;;;;;5048179;28;20435;-79
2024/03/01 07:16:00;;;;;;;6.10;4.30;;;9.10;99.90;;;;;;5051628;28;20403;-82
2024/03/01 07:18:25;;;;;;;5.40;4.45;;;9.10;99.90;;;;;;5045489;28;20402;-84
2024/03/01 07:20:52;;;;;;;5.65;4.10;;;9.10;99.90;;;;;;5038584;28;20417;-83
2024/03/01 07:23:18;;;;;;;4.93;4.43;;;9.20;99.90;;;;;;5037458;28;20771;-83
2024/03/01 07:25:43;;;;;;;4.68;4.28;;;9.20;99.90;;;;;;5037371;28;20384;-83
2024/03/01 07:28:09;;;;;;;4.90;4.40;;;9.10;99.90;;;;;;5037024;28;20794;-82
2024/03/01 07:30:34;;;;;;;6.37;4.30;;;9.30;99.90;;;;;;5037391;28;20797;-82
2024/03/01 07:33:00;;;;;;;4.33;3.93;;;9.20;99.90;;;;;;5040365;28;20397;-81
2024/03/01 07:35:26;;;;;;;4.38;3.90;;;9.20;99.90;;;;;;5043329;28;20395;-82
2024/03/01 07:37:51;;;;;;;5.10;3.83;;;9.10;99.90;;;;;;5044812;28;20387;-80
2024/03/01 07:40:17;;;;;;;4.05;3.20;;;8.90;99.90;;;;;;5039295;28;20907;-80
2024/03/01 07:42:43;;;;;;;5.22;3.15;;;9.00;99.90;;;;;;5040602;28;20761;-81
2024/03/01 07:45:09;;;;;;;3.80;3.22;;;9.10;99.90;;;;;;5042109;28;20395;-81
2024/03/01 07:47:34;;;;;;;3.15;2.85;;;9.00;99.90;;;;;;5037521;28;20387;-83
2024/03/01 07:50:00;;;;;;;4.23;3.27;;;9.30;99.90;;;;;;5046633;28;20450;-83
2024/03/01 07:52:29;;;;;;;3.30;2.90;;;9.30;99.90;;;;;;5036202;28;20975;-82
2024/03/01 07:54:55;;;;;;;3.47;2.95;;;8.60;99.90;;;;;;5041701;28;20399;-82
2024/03/01 07:57:21;;;;;;;3.78;3.00;;;8.70;99.90;;;;;;5033417;28;20391;-81
2024/03/01 07:59:47;;;;;;;3.05;2.47;;;8.90;99.90;;;;;;5039072;28;20395;-82
2024/03/01 08:02:12;;;;;;;4.10;2.90;;;9.20;99.90;;;;;;5038056;28;20449;-82
2024/03/01 08:04:38;;;;;;;3.10;2.60;;;9.10;99.90;;;;;;5035046;28;20418;-81
2024/03/01 08:07:06;;;;;;;3.40;2.80;;;9.30;99.90;;;;;;5034431;28;20399;-80
2024/03/01 08:09:36;;;;;;;2.53;2.30;;;8.80;99.90;;;;;;5039226;28;20905;-81
2024/03/01 08:12:05;;;;;;;2.72;2.50;;;9.40;99.90;;;;;;5047285;28;20390;-81
2024/03/01 08:14:33;;;;;;;3.63;2.30;;;9.50;99.90;;;;;;5044836;28;20406;-83
2024/03/01 08:16:59;;;;;;;2.78;2.00;;;9.40;99.90;;;;;;5043114;28;20410;-81
2024/03/01 08:19:32;;;;;;;3.08;1.90;;;9.30;99.90;;;;;;5043552;28;20393;-82
2024/03/01 08:22:09;;;;;;;2.40;2.10;;;9.40;99.90;;;;;;5041644;28;20411;-81
2024/03/01 08:24:35;;;;;;;2.13;1.92;;;9.50;99.90;;;;;;5047055;28;20422;-80
2024/03/01 08:27:01;;;;;;;2.20;2.00;;;9.50;99.90;;;;;;5046550;28;20389;-80
2024/03/01 08:29:27;;;;;;;2.10;1.83;;;9.30;99.90;;;;;;5045253;28;20501;-81
2024/03/01 08:31:53;;;;;;;1.70;1.60;;;9.50;99.90;;;;;;5043344;28;20471;-80
2024/03/01 08:34:28;;;;;;;2.87;2.00;;;9.50;99.90;;;;;;5040874;28;20391;-81
2024/03/01 08:36:54;;;;;;;2.08;1.88;;;9.60;99.90;;;;;;5040666;28;20383;-80
2024/03/01 08:39:21;;;;;;;2.67;2.03;;;9.50;99.90;;;;;;5040222;28;20384;-81
2024/03/01 08:41:51;;;;;;;2.15;1.90;;;10.60;99.90;;;;;;5038014;28;20399;-81
2024/03/01 08:44:49;;;;;;;2.33;1.60;;;9.90;99.90;;;;;;5039249;28;20445;-81
2024/03/01 08:47:31;;;;;;;2.70;2.00;;;10.10;99.90;;;;;;5039447;28;20429;-81
2024/03/01 08:50:24;;;;;;;1.90;1.70;;;10.10;99.90;;;;;;5045078;28;20391;-81
2024/03/01 08:52:51;;;;;;;2.10;1.50;;;9.60;99.90;;;;;;5053179;28;20410;-79
2024/03/01 08:55:16;;;;;;;2.17;1.70;;;10.10;99.90;;;;;;5055051;28;20418;-80
2024/03/01 08:57:42;;;;;;;1.40;1.30;;;10.80;99.90;;;;;;5056463;28;20391;-79
2024/03/01 09:00:37;;;;;;;3.00;1.60;;;10.30;99.90;;;;;;5050651;28;20407;-82
2024/03/01 09:03:03;;;;;;;1.70;1.50;;;10.30;99.90;;;;;;5033264;28;20759;-81
2024/03/01 09:05:30;;;;;;;1.95;1.45;;;10.40;99.90;;;;;;5036970;28;20842;-81
2024/03/01 09:07:59;;;;;;;3.40;2.15;;;10.60;99.90;;;;;;5037278;28;20458;-82
2024/03/01 09:10:29;;;;;;;2.78;2.28;;;10.60;99.90;;;;;;5038113;28;20474;-81
2024/03/01 09:12:55;;;;;;;2.40;2.20;;;10.70;99.90;;;;;;5040446;28;20453;-79
2024/03/01 09:15:38;;;;;;;3.03;2.50;;;10.50;99.90;;;;;;5039499;28;20395;-82
2024/03/01 09:18:07;;;;;;;2.57;2.10;;;10.60;99.90;;;;;;5038663;28;20445;-82
2024/03/01 09:20:37;;;;;;;3.45;2.40;;;10.60;99.90;;;;;;5038848;28;20409;-81
2024/03/01 09:23:12;;;;;;;3.08;2.28;;;10.50;99.90;;;;;;5037400;28;20843;-81
2024/03/01 09:25:41;;;;;;;2.78;1.83;;;10.60;99.90;;;;;;5037586;28;20453;-83
2024/03/01 09:28:12;;;;;;;2.28;1.90;;;10.60;99.90;;;;;;5038260;28;20471;-82
2024/03/01 09:30:38;;;;;;;2.28;2.08;;;10.70;99.90;;;;;;5037756;28;20474;-82
2024/03/01 09:33:10;;;;;;;2.53;2.28;;;10.70;99.90;;;;;;5038390;28;20759;-82
2024/03/01 09:35:37;;;;;;;2.50;1.90;;;10.40;99.90;;;;;;5037071;28;20402;-82
2024/03/01 09:38:04;;;;;;;1.40;1.30;;;10.20;99.90;;;;;;5038292;28;20379;-82
2024/03/01 09:40:51;;;;;;;1.50;1.40;;;10.60;99.90;;;;;;5038259;28;20433;-81
2024/03/01 09:43:25;;;;;;;1.42;1.10;;;10.50;99.90;;;;;;5039855;28;20400;-82
2024/03/01 09:45:57;;;;;;;1.17;0.90;;;10.40;99.90;;;;;;5040284;28;20451;-81
2024/03/01 09:48:32;;;;;;;0.90;0.80;;;10.00;99.90;;;;;;5042614;28;20608;-82
2024/03/01 09:51:09;;;;;;;0.80;0.70;;;10.30;99.90;;;;;;5044089;28;20806;-82
2024/03/01 09:53:59;;;;;;;1.00;0.60;;;10.50;99.90;;;;;;5044490;28;20415;-81
2024/03/01 09:56:24;;;;;;;1.13;0.80;;;10.50;99.90;;;;;;5044909;28;20394;-81
2024/03/01 09:59:12;;;;;;;1.10;0.90;;;10.50;99.90;;;;;;5048704;28;20394;-82
2024/03/01 10:01:43;;;;;;;1.25;0.73;;;10.20;99.90;;;;;;5050474;28;20405;-81
2024/03/01 10:04:30;;;;;;;0.90;0.60;;;10.20;99.90;;;;;;5048396;28;20898;-81
2024/03/01 10:07:08;;;;;;;1.42;1.00;;;10.10;99.90;;;;;;5047337;28;20387;-81
2024/03/01 10:10:11;;;;;;;2.00;1.20;;;10.10;99.90;;;;;;5044713;28;20391;-81
2024/03/01 10:12:56;;;;;;;2.08;1.35;;;10.10;99.90;;;;;;5043621;28;20391;-82
2024/03/01 10:15:39;;;;;;;1.48;1.30;;;10.10;99.90;;;;;;5044934;28;20466;-80
2024/03/01 10:18:15;;;;;;;1.30;1.20;;;9.90;99.90;;;;;;5045255;28;20387;-81
2024/03/01 10:21:11;;;;;;;1.30;1.10;;;9.40;99.90;;;;;;5041585;28;20382;-82
2024/03/01 10:24:19;;;;;;;1.83;1.13;;;10.30;99.90;;;;;;5039621;28;20463;-82
2024/03/01 10:27:02;;;;;;;2.00;1.25;;;10.50;99.90;;;;;;5042591;28;20395;-83
2024/03/01 10:29:32;;;;;;;1.92;1.50;;;10.10;99.90;;;;;;5041369;28;20394;-83
2024/03/01 10:32:17;;;;;;;1.90;1.30;;;10.10;99.90;;;;;;5041538;28;20387;-82
2024/03/01 10:34:59;;;;;;;1.88;1.40;;;10.10;99.90;;;;;;5043425;28;20906;-82
2024/03/01 10:38:09;;;;;;;1.30;1.20;;;10.00;99.90;;;;;;5044883;28;20417;-83
2024/03/01 10:40:44;;;;;;;1.73;1.55;;;9.90;99.90;;;;;;5042076;28;20387;-82
2024/03/01 10:43:20;;;;;;;1.50;1.20;;;9.80;99.90;;;;;;5040865;28;20478;-82
2024/03/01 10:46:06;;;;;;;1.70;1.30;;;9.90;99.90;;;;;;5039738;28;20406;-82
2024/03/01 10:48:49;;;;;;;1.50;1.40;;;9.60;99.90;;;;;;5042813;28;20383;-82
2024/03/01 10:51:17;;;;;;;1.95;1.50;;;9.60;99.90;;;;;;5041674;28;20391;-82
2024/03/01 10:53:51;;;;;;;2.15;1.30;;;9.50;99.90;;;;;;5039736;28;20397;-82
2024/03/01 10:56:20;;;;;;;2.45;1.60;;;9.50;99.90;;;;;;5043708;28;20406;-83
2024/03/01 10:59:00;;;;;;;2.88;2.00;;;9.20;99.90;;;;;;5043818;28;20960;-82
2024/03/01 11:01:52;;;;;;;2.10;1.90;;;9.40;99.90;;;;;;5042073;28;20407;-82
2024/03/01 11:04:38;;;;;;;1.98;1.60;;;9.30;99.90;;;;;;5040406;28;20477;-83
2024/03/01 11:07:10;;;;;;;2.60;1.90;;;9.20;99.90;;;;;;5042761;28;20388;-82
2024/03/01 11:10:00;;;;;;;2.60;2.00;;;9.20;99.90;;;;;;5048974;28;20843;-82
2024/03/01 11:12:50;;;;;;;3.10;2.20;;;9.10;99.90;;;;;;5041221;28;20530;-83
2024/03/01 11:15:20;;;;;;;2.20;2.00;;;9.10;99.90;;;;;;5044523;28;20419;-79
2024/03/01 11:17:49;;;;;;;2.50;2.25;;;8.90;99.90;;;;;;5046123;28;20391;-82
2024/03/01 11:20:25;;;;;;;2.58;2.38;;;9.10;99.90;;;;;;5040998;28;20391;-82
2024/03/01 11:23:05;;;;;;;3.20;2.70;;;9.20;99.90;;;;;;5043280;28;20447;-82
2024/03/01 11:26:02;;;;;;;3.80;3.10;;;9.40;99.90;;;;;;5042593;28;20399;-82
2024/03/01 11:28:29;;;;;;;3.35;2.80;;;9.00;99.90;;;;;;5044641;28;20466;-83
2024/03/01 11:31:01;;;;;;;4.68;3.20;;;9.00;99.90;;;;;;5076990;28;20405;-83
2024/03/01 11:33:28;;;;;;;3.00;2.80;;;9.30;99.90;;;;;;5043919;28;20403;-82
2024/03/01 11:36:10;;;;;;;2.88;2.67;;;9.30;99.90;;;;;;5049142;28;20433;-82
2024/03/01 11:38:42;;;;;;;3.40;3.00;;;9.20;99.90;;;;;;5050745;28;20382;-82
2024/03/01 11:41:49;;;;;;;3.67;3.00;;;9.40;99.90;;;;;;5050739;28;20411;-82
2024/03/01 11:45:10;;;;;;;2.50;2.30;;;9.30;99.90;;;;;;5042916;28;20798;-81
2024/03/01 11:48:14;;;;;;;3.80;2.35;;;9.30;99.90;;;;;;5069047;28;20407;-82
2024/03/01 11:51:13;;;;;;;2.20;2.00;;;9.90;99.90;;;;;;5044764;28;20398;-81
2024/03/01 11:53:52;;;;;;;1.80;1.43;;;9.70;99.90;;;;;;5042614;28;20414;-82
2024/03/01 11:56:40;;;;;;;1.70;1.50;;;9.70;99.90;;;;;;5043890;28;20379;-82
2024/03/01 11:59:36;;;;;;;1.70;1.60;;;9.60;99.90;;;;;;5049927;28;20387;-81
2024/03/01 12:02:16;;;;;;;1.70;1.60;;;9.80;99.90;;;;;;5047999;28;20437;-81
2024/03/01 12:05:24;;;;;;;2.13;1.50;;;10.00;99.90;;;;;;5044542;28;20859;-83
2024/03/01 12:07:59;;;;;;;1.85;1.67;;;10.00;99.90;;;;;;5041733;28;20382;-82
2024/03/01 12:10:36;;;;;;;1.60;1.40;;;10.20;99.90;;;;;;5040081;28;20379;-81
2024/03/01 12:13:09;;;;;;;1.65;1.55;;;9.90;99.90;;;;;;5038906;28;20413;-80
2024/03/01 12:15:44;;;;;;;1.50;1.38;;;9.70;99.90;;;;;;5037319;28;20910;-82
2024/03/01 12:18:25;;;;;;;1.40;1.20;;;10.10;99.90;;;;;;5040098;28;20805;-81
2024/03/01 12:21:15;;;;;;;2.58;1.23;;;10.10;99.90;;;;;;5042471;28;20820;-83
2024/03/01 12:23:44;;;;;;;1.10;1.00;;;10.10;99.90;;;;;;5040826;28;20391;-83
2024/03/01 12:26:13;;;;;;;1.85;1.30;;;10.10;99.90;;;;;;5038809;28;20397;-81
2024/03/01 12:28:54;;;;;;;1.30;1.20;;;10.00;99.90;;;;;;5039481;28;20371;-83
2024/03/01 12:31:46;;;;;;;1.30;1.20;;;10.20;99.90;;;;;;5037258;28;20426;-82
2024/03/01 12:34:25;;;;;;;1.42;1.30;;;9.80;99.90;;;;;;5039311;28;20398;-82
2024/03/01 12:37:08;;;;;;;1.30;1.00;;;10.00;99.90;;;;;;5043000;28;20391;-83
2024/03/01 12:39:38;;;;;;;1.70;1.20;;;11.50;99.90;;;;;;5039479;28;20390;-82
2024/03/01 12:42:34;;;;;;;1.02;0.93;;;9.80;99.90;;;;;;5039181;28;20399;-82
2024/03/01 12:45:27;;;;;;;1.05;0.95;;;9.80;99.90;;;;;;5038912;28;20462;-83
2024/03/01 12:48:13;;;;;;;1.80;0.90;;;9.60;99.90;;;;;;5036560;28;20379;-81
2024/03/01 12:50:54;;;;;;;1.10;1.00;;;10.50;99.90;;;;;;5037980;28;20474;-82
2024/03/01 12:53:30;;;;;;;1.40;0.80;;;10.00;99.90;;;;;;5037739;28;20386;-82
2024/03/01 12:56:04;;;;;;;1.40;1.07;;;9.80;99.90;;;;;;5038365;28;20391;-82
2024/03/01 12:59:22;;;;;;;1.00;0.90;;;10.00;99.90;;;;;;5038357;28;20418;-82
2024/03/01 13:02:26;;;;;;;1.42;1.10;;;10.00;99.90;;;;;;5030647;28;20415;-83
2024/03/01 13:05:17;;;;;;;1.10;1.00;;;10.00;99.90;;;;;;5037956;28;20379;-83